Time;durP1;ratioP1;P1;durP2;ratioP2;P2;SDS_P1;SDS_P2;PMS_P1;PMS_P2;Temp;Humidity;BMP_temperature;BMP_pressure;BME280_temperature;BME280_humidity;BME280_pressure;Samples;Min_cycle;Max_cycle;Signal;HPM_P1;HPM_P2
2023/01/23 00:01:21;;;;;;;42.83;13.23;;;4.10;99.90;;;;;;5065760;28;20470;-59
2023/01/23 00:03:48;;;;;;;51.70;17.10;;;4.10;99.90;;;;;;5050812;28;20528;-59
2023/01/23 00:06:17;;;;;;;45.10;14.73;;;4.00;99.90;;;;;;5047135;28;20465;-59
2023/01/23 00:08:45;;;;;;;49.20;15.93;;;4.00;99.90;;;;;;5076857;27;21087;-60
2023/01/23 00:11:13;;;;;;;39.80;13.00;;;;;;;;;;5060857;28;20481;-60
2023/01/23 00:13:40;;;;;;;49.87;18.43;;;4.00;99.90;;;;;;5070083;28;20487;-60
2023/01/23 00:16:08;;;;;;;40.80;14.53;;;4.00;99.90;;;;;;5053444;28;20484;-59
2023/01/23 00:18:35;;;;;;;45.73;14.27;;;;;;;;;;5059923;28;20483;-60
2023/01/23 00:21:04;;;;;;;39.80;14.27;;;;;;;;;;5054608;28;20481;-60
2023/01/23 00:23:32;;;;;;;39.23;13.17;;;3.90;99.90;;;;;;5076215;27;20571;-60
2023/01/23 00:26:03;;;;;;;36.80;12.93;;;3.90;99.90;;;;;;5052041;28;20845;-60
2023/01/23 00:28:31;;;;;;;40.27;13.40;;;;;;;;;;5044245;28;20506;-59
2023/01/23 00:31:03;;;;;;;44.73;12.93;;;4.00;99.90;;;;;;5049288;28;20736;-59
2023/01/23 00:33:30;;;;;;;38.17;13.40;;;4.00;99.90;;;;;;5041970;28;20779;-60
2023/01/23 00:35:57;;;;;;;42.73;14.07;;;4.00;99.90;;;;;;5081742;27;21243;-59
2023/01/23 00:38:24;;;;;;;32.40;12.60;;;4.00;99.90;;;;;;5063244;28;20496;-59
2023/01/23 00:40:53;;;;;;;46.37;15.03;;;4.00;99.90;;;;;;5053689;28;20486;-59
2023/01/23 00:43:21;;;;;;;44.90;13.43;;;;;;;;;;5073404;28;20882;-60
2023/01/23 00:45:47;;;;;;;49.97;14.47;;;4.00;99.90;;;;;;5068789;28;20540;-59
2023/01/23 00:48:14;;;;;;;35.03;12.70;;;7.00;99.90;;;;;;5042788;28;20506;-59
2023/01/23 00:50:41;;;;;;;46.47;13.67;;;4.00;99.90;;;;;;5065598;28;20502;-59
2023/01/23 00:53:08;;;;;;;43.33;13.20;;;;;;;;;;5046645;28;20479;-59
2023/01/23 00:55:35;;;;;;;40.33;12.97;;;;;;;;;;5059410;28;20477;-58
2023/01/23 00:58:03;;;;;;;44.93;14.10;;;;;;;;;;5052654;28;20490;-59
2023/01/23 01:00:30;;;;;;;37.33;10.90;;;;;;;;;;5062853;27;20485;-60
2023/01/23 01:02:57;;;;;;;35.30;11.57;;;4.10;99.90;;;;;;5055342;28;20487;-59
2023/01/23 01:05:24;;;;;;;37.50;14.10;;;4.10;99.90;;;;;;5040161;28;20487;-59
2023/01/23 01:07:50;;;;;;;50.70;14.70;;;4.10;99.90;;;;;;5046093;27;20911;-59
2023/01/23 01:10:17;;;;;;;31.57;11.20;;;4.10;99.90;;;;;;5068147;27;20479;-59
2023/01/23 01:12:45;;;;;;;51.00;16.00;;;;;;;;;;5043797;28;20494;-59
2023/01/23 01:15:14;;;;;;;37.83;13.50;;;4.00;99.90;;;;;;5042980;28;21073;-58
2023/01/23 01:17:41;;;;;;;45.60;16.00;;;4.10;99.90;;;;;;5064209;28;20487;-59
2023/01/23 01:20:10;;;;;;;28.60;12.20;;;4.10;99.90;;;;;;5072061;28;20480;-59
2023/01/23 01:22:37;;;;;;;32.73;11.87;;;4.10;99.90;;;;;;5052877;28;21048;-59
2023/01/23 01:25:04;;;;;;;43.90;12.60;;;4.10;99.90;;;;;;5052650;28;20487;-59
2023/01/23 01:27:31;;;;;;;40.93;12.23;;;;;;;;;;5064705;28;20939;-59
2023/01/23 01:29:58;;;;;;;31.80;10.43;;;4.10;99.90;;;;;;5061912;28;21014;-59
2023/01/23 01:32:26;;;;;;;41.23;11.20;;;4.10;99.90;;;;;;5044983;28;20956;-58
2023/01/23 01:34:53;;;;;;;43.37;11.97;;;4.10;99.90;;;;;;5071953;28;20982;-58
2023/01/23 01:37:21;;;;;;;28.63;11.47;;;4.00;99.90;;;;;;5054339;28;20491;-59
2023/01/23 01:39:48;;;;;;;36.03;14.40;;;4.00;99.90;;;;;;5048983;28;20489;-58
2023/01/23 01:42:15;;;;;;;29.83;11.17;;;;;;;;;;5059747;28;20482;-59
2023/01/23 01:44:54;;;;;;;25.90;10.23;;;4.00;99.90;;;;;;5062185;28;20481;-59
2023/01/23 01:47:21;;;;;;;25.70;9.27;;;4.00;99.90;;;;;;5061382;28;20482;-59
2023/01/23 01:49:50;;;;;;;46.70;14.13;;;4.00;99.90;;;;;;5050462;28;20475;-60
2023/01/23 01:52:20;;;;;;;31.67;10.47;;;4.00;99.90;;;;;;5055659;28;20479;-60
2023/01/23 01:54:52;;;;;;;51.70;14.50;;;3.90;99.90;;;;;;5066223;28;20517;-60
2023/01/23 01:57:23;;;;;;;39.23;11.67;;;3.90;99.90;;;;;;5055899;28;20587;-60
2023/01/23 01:59:54;;;;;;;44.80;13.43;;;3.90;99.90;;;;;;5062804;28;20492;-60
2023/01/23 02:02:24;;;;;;;42.73;12.47;;;;;;;;;;5081168;28;20482;-60
2023/01/23 02:04:55;;;;;;;45.00;12.47;;;3.90;99.90;;;;;;5072077;28;20483;-60
2023/01/23 02:07:24;;;;;;;36.73;11.57;;;;;;;;;;5048597;28;20481;-60
2023/01/23 02:09:52;;;;;;;38.77;11.33;;;;;;;;;;5072346;28;20478;-60
2023/01/23 02:12:20;;;;;;;33.40;9.57;;;;;;;;;;5051501;28;20825;-60
2023/01/23 02:14:46;;;;;;;57.03;16.67;;;3.80;99.90;;;;;;5058554;28;20479;-60
2023/01/23 02:17:13;;;;;;;39.73;11.37;;;3.80;99.90;;;;;;5052148;28;20840;-59
2023/01/23 02:19:46;;;;;;;50.83;16.17;;;3.80;99.90;;;;;;5047540;28;20501;-60
2023/01/23 02:22:28;;;;;;;40.70;12.30;;;3.80;99.90;;;;;;5075511;28;20481;-59
2023/01/23 02:25:02;;;;;;;31.90;9.67;;;3.70;99.90;;;;;;5053280;28;20509;-59
2023/01/23 02:27:30;;;;;;;38.63;11.57;;;3.80;99.90;;;;;;5063420;28;20478;-59
2023/01/23 02:29:57;;;;;;;39.37;11.13;;;3.80;99.90;;;;;;5043824;28;20494;-60
2023/01/23 02:32:25;;;;;;;36.23;10.43;;;;;;;;;;5077320;28;20487;-59
2023/01/23 02:34:56;;;;;;;31.03;10.93;;;3.70;99.90;;;;;;5055619;28;20521;-60
2023/01/23 02:37:26;;;;;;;35.37;11.03;;;3.70;99.90;;;;;;5069031;28;20864;-60
2023/01/23 02:39:53;;;;;;;40.40;11.47;;;;;;;;;;5042060;28;20481;-60
2023/01/23 02:42:24;;;;;;;28.73;8.90;;;3.80;99.90;;;;;;5064521;28;20486;-60
2023/01/23 02:44:54;;;;;;;26.70;9.37;;;3.70;99.90;;;;;;5052232;28;20995;-60
2023/01/23 02:47:21;;;;;;;42.03;12.87;;;;;;;;;;5066762;28;20835;-60
2023/01/23 02:49:48;;;;;;;36.27;10.43;;;3.70;99.90;;;;;;5065875;28;20485;-59
2023/01/23 02:52:16;;;;;;;30.70;8.80;;;3.60;99.90;;;;;;5060439;28;20649;-60
2023/01/23 02:54:43;;;;;;;36.23;12.03;;;3.60;99.90;;;;;;5070554;28;20477;-60
2023/01/23 02:57:10;;;;;;;37.93;12.17;;;;;;;;;;5068763;28;20504;-60
2023/01/23 03:02:22;;;;;;;34.07;10.07;;;3.70;99.90;;;;;;5076708;28;20488;-59
2023/01/23 03:04:50;;;;;;;41.57;13.00;;;3.70;99.90;;;;;;5057408;28;20816;-60
2023/01/23 03:07:46;;;;;;;39.50;11.20;;;;;;;;;;5045922;28;21077;-60
2023/01/23 03:10:15;;;;;;;30.50;9.30;;;3.70;99.90;;;;;;5076250;28;20466;-60
2023/01/23 03:12:44;;;;;;;48.77;12.70;;;3.70;99.90;;;;;;5061206;28;20705;-60
2023/01/23 03:15:11;;;;;;;35.57;11.27;;;3.80;99.90;;;;;;5083019;28;20572;-60
2023/01/23 03:17:39;;;;;;;30.70;10.37;;;3.70;99.90;;;;;;5047469;28;20490;-60
2023/01/23 03:20:10;;;;;;;40.43;12.70;;;3.80;99.90;;;;;;5078509;28;20480;-59
2023/01/23 03:22:37;;;;;;;42.93;11.97;;;3.70;99.90;;;;;;5075997;28;20483;-60
2023/01/23 03:25:04;;;;;;;31.23;10.43;;;3.70;99.90;;;;;;5065844;28;20474;-59
2023/01/23 03:27:31;;;;;;;27.77;8.53;;;3.70;99.90;;;;;;5062059;28;20843;-59
2023/01/23 03:30:12;;;;;;;36.07;10.50;;;;;;;;;;5063354;28;20898;-59
2023/01/23 03:32:41;;;;;;;49.17;13.47;;;;;;;;;;5061291;28;21046;-59
2023/01/23 03:35:12;;;;;;;45.90;11.37;;;;;;;;;;5074270;28;20487;-59
2023/01/23 03:37:39;;;;;;;33.60;11.90;;;3.80;99.90;;;;;;5052481;28;20943;-59
2023/01/23 03:42:52;;;;;;;40.73;11.20;;;;;;;;;;5061049;28;20498;-59
2023/01/23 03:45:19;;;;;;;31.07;10.40;;;3.80;99.90;;;;;;5065597;28;20485;-58
2023/01/23 03:47:47;;;;;;;42.83;13.63;;;3.80;99.90;;;;;;5068477;28;20474;-59
2023/01/23 03:50:13;;;;;;;35.13;10.33;;;3.80;99.90;;;;;;5077019;28;21017;-58
2023/01/23 03:52:41;;;;;;;60.07;15.53;;;3.80;99.90;;;;;;5065051;28;20483;-59
2023/01/23 03:55:08;;;;;;;33.47;9.80;;;3.80;99.90;;;;;;5054320;28;21076;-59
2023/01/23 03:57:35;;;;;;;53.67;15.00;;;3.70;99.90;;;;;;5043812;28;20489;-59
2023/01/23 04:00:02;;;;;;;42.93;11.17;;;3.70;99.90;;;;;;5052483;28;20492;-59
2023/01/23 04:02:29;;;;;;;38.83;12.97;;;3.80;99.90;;;;;;5065687;28;20874;-59
2023/01/23 04:04:57;;;;;;;31.43;10.70;;;;;;;;;;5075439;28;20498;-58
2023/01/23 04:07:24;;;;;;;40.73;12.53;;;3.80;99.90;;;;;;5053554;28;20504;-58
2023/01/23 04:09:51;;;;;;;53.33;13.93;;;3.80;99.90;;;;;;5071215;28;20494;-58
2023/01/23 04:12:18;;;;;;;26.90;9.40;;;3.80;99.90;;;;;;5058982;28;20483;-59
2023/01/23 04:14:45;;;;;;;40.13;10.63;;;;;;;;;;5075792;28;20480;-60
2023/01/23 04:17:12;;;;;;;49.63;12.90;;;;;;;;;;5061732;28;20486;-59
2023/01/23 04:19:39;;;;;;;35.43;10.70;;;3.80;99.90;;;;;;5066441;28;20521;-59
2023/01/23 04:22:08;;;;;;;39.83;11.27;;;3.80;99.90;;;;;;5068753;28;20477;-60
2023/01/23 04:24:35;;;;;;;39.40;12.40;;;3.70;99.90;;;;;;5063617;28;20482;-60
2023/01/23 04:27:02;;;;;;;45.23;12.53;;;3.70;99.90;;;;;;5079571;28;21073;-59
2023/01/23 04:29:28;;;;;;;27.07;8.67;;;3.60;99.90;;;;;;5047891;28;20510;-59
2023/01/23 04:31:55;;;;;;;33.93;9.80;;;3.50;99.90;;;;;;5053728;28;20486;-59
2023/01/23 04:34:22;;;;;;;35.43;10.30;;;3.50;99.90;;;;;;5082913;28;20477;-59
2023/01/23 04:36:49;;;;;;;59.30;16.10;;;3.50;99.90;;;;;;5065440;28;20483;-60
2023/01/23 04:39:17;;;;;;;30.83;8.77;;;3.50;99.90;;;;;;5074919;28;20485;-60
2023/01/23 04:41:43;;;;;;;51.47;14.63;;;3.50;99.90;;;;;;5053672;28;20902;-59
2023/01/23 04:44:23;;;;;;;38.63;10.50;;;;;;;;;;5074569;28;20604;-59
2023/01/23 04:46:52;;;;;;;73.07;17.70;;;3.50;99.90;;;;;;5056237;28;20481;-59
2023/01/23 04:49:20;;;;;;;28.03;8.20;;;3.50;99.90;;;;;;5073806;28;20979;-59
2023/01/23 04:51:47;;;;;;;58.43;14.07;;;3.50;99.90;;;;;;5062047;28;20494;-59
2023/01/23 04:54:14;;;;;;;43.03;11.37;;;3.50;99.90;;;;;;5061484;28;21236;-59
2023/01/23 04:56:42;;;;;;;48.83;15.27;;;3.50;99.90;;;;;;5073254;28;20894;-59
2023/01/23 04:59:09;;;;;;;71.80;10.10;;;3.50;99.90;;;;;;5055096;28;20480;-59
2023/01/23 05:01:36;;;;;;;33.33;12.10;;;;;;;;;;5049425;28;20483;-59
2023/01/23 05:04:04;;;;;;;50.57;11.83;;;;;;;;;;5078260;28;20484;-59
2023/01/23 05:06:31;;;;;;;51.73;15.93;;;3.40;99.90;;;;;;5060646;28;20503;-59
2023/01/23 05:08:58;;;;;;;31.97;10.00;;;3.50;99.90;;;;;;5082254;28;20475;-59
2023/01/23 05:11:24;;;;;;;39.20;10.70;;;3.50;99.90;;;;;;5051162;28;20845;-59
2023/01/23 05:13:52;;;;;;;38.57;11.10;;;3.50;99.90;;;;;;5077105;28;20484;-59
2023/01/23 05:16:19;;;;;;;38.73;12.33;;;3.50;99.90;;;;;;5056156;28;20486;-59
2023/01/23 05:18:46;;;;;;;50.63;12.40;;;;;;;;;;5052981;28;20483;-59
2023/01/23 05:21:13;;;;;;;32.30;8.70;;;;;;;;;;5052937;28;20489;-60
2023/01/23 05:23:40;;;;;;;43.87;11.73;;;3.40;99.90;;;;;;5073739;28;20490;-59
2023/01/23 05:26:07;;;;;;;38.67;11.40;;;3.40;99.90;;;;;;5070023;28;20487;-59
2023/01/23 05:28:34;;;;;;;33.97;10.53;;;;;;;;;;5053321;28;21647;-59
2023/01/23 05:31:02;;;;;;;40.33;11.10;;;3.40;99.90;;;;;;5074847;28;20482;-59
2023/01/23 05:33:29;;;;;;;33.60;9.70;;;;;;;;;;5068586;28;20814;-60
2023/01/23 05:35:59;;;;;;;38.30;11.80;;;3.40;99.90;;;;;;5067036;28;20481;-59
2023/01/23 05:38:25;;;;;;;40.93;10.40;;;3.40;99.90;;;;;;5057323;28;20475;-58
2023/01/23 05:40:52;;;;;;;36.33;10.37;;;3.40;99.90;;;;;;5054780;28;20481;-60
2023/01/23 05:43:19;;;;;;;33.07;9.57;;;;;;;;;;5067900;28;20478;-59
2023/01/23 05:45:46;;;;;;;39.90;13.57;;;3.30;99.90;;;;;;5067197;28;20492;-59
2023/01/23 05:48:14;;;;;;;43.27;10.60;;;3.30;99.90;;;;;;5058735;28;20481;-59
2023/01/23 05:50:42;;;;;;;48.03;13.30;;;;;;;;;;5053894;28;20490;-60
2023/01/23 05:53:09;;;;;;;44.80;11.20;;;;;;;;;;5079887;28;20485;-60
2023/01/23 05:55:37;;;;;;;48.00;11.30;;;3.20;99.90;;;;;;5061421;28;20486;-59
2023/01/23 05:58:04;;;;;;;39.00;10.77;;;;;;;;;;5048518;28;20515;-60
2023/01/23 06:00:32;;;;;;;31.93;8.83;;;;;;;;;;5051292;28;20478;-60
2023/01/23 06:02:58;;;;;;;26.90;6.63;;;3.10;99.90;;;;;;5057479;28;20463;-60
2023/01/23 06:05:27;;;;;;;33.93;10.20;;;;;;;;;;5051492;28;20488;-60
2023/01/23 06:07:54;;;;;;;34.60;9.30;;;;;;;;;;5047679;28;20890;-60
2023/01/23 06:10:21;;;;;;;25.77;7.03;;;3.10;99.90;;;;;;5055433;28;20484;-59
2023/01/23 06:12:47;;;;;;;51.83;13.50;;;3.20;99.90;;;;;;5045834;28;20494;-60
2023/01/23 06:15:14;;;;;;;32.03;7.77;;;;;;;;;;5049144;28;20481;-60
2023/01/23 06:17:41;;;;;;;54.33;14.63;;;3.20;99.90;;;;;;5069685;28;21175;-60
2023/01/23 06:20:09;;;;;;;33.00;9.10;;;3.20;99.90;;;;;;5056996;28;20833;-60
2023/01/23 06:22:37;;;;;;;42.40;12.23;;;3.30;99.90;;;;;;5079389;28;20492;-59
2023/01/23 06:25:05;;;;;;;31.43;10.20;;;3.30;99.90;;;;;;5078813;28;21213;-59
2023/01/23 06:27:32;;;;;;;39.80;12.40;;;3.30;99.90;;;;;;5064179;28;20843;-59
2023/01/23 06:29:59;;;;;;;46.43;11.97;;;3.30;99.90;;;;;;5052606;28;20462;-59
2023/01/23 06:32:25;;;;;;;40.10;12.17;;;3.30;99.90;;;;;;5064445;28;20471;-60
2023/01/23 06:34:52;;;;;;;34.57;10.77;;;;;;;;;;5051531;28;20494;-59
2023/01/23 06:37:19;;;;;;;35.80;8.63;;;;;;;;;;5038787;28;20483;-59
2023/01/23 06:39:48;;;;;;;54.27;14.80;;;;;;;;;;5078659;28;20477;-59
2023/01/23 06:42:15;;;;;;;30.07;10.60;;;3.30;99.90;;;;;;5059726;28;20824;-59
2023/01/23 06:44:42;;;;;;;45.17;13.33;;;;;;;;;;5056900;28;20469;-59
2023/01/23 06:47:09;;;;;;;51.07;12.10;;;;;;;;;;5067111;28;20581;-59
2023/01/23 06:49:35;;;;;;;42.30;12.67;;;3.30;99.90;;;;;;5061122;28;20512;-59
2023/01/23 06:52:02;;;;;;;35.70;9.67;;;3.30;99.90;;;;;;5058523;28;20549;-59
2023/01/23 06:54:29;;;;;;;30.90;10.47;;;3.30;99.90;;;;;;5061227;28;20918;-59
2023/01/23 06:56:57;;;;;;;48.00;13.93;;;3.30;99.90;;;;;;5053705;28;20490;-59
2023/01/23 06:59:23;;;;;;;32.87;9.60;;;3.20;99.90;;;;;;5077972;28;20864;-59
2023/01/23 07:01:50;;;;;;;39.67;11.20;;;3.30;99.90;;;;;;5067058;27;20476;-59
2023/01/23 07:04:17;;;;;;;32.30;10.40;;;;;;;;;;5061516;28;20477;-59
2023/01/23 07:06:44;;;;;;;63.50;17.80;;;;;;;;;;5058804;28;20992;-59
2023/01/23 07:09:12;;;;;;;37.93;9.47;;;;;;;;;;5041542;28;20476;-60
2023/01/23 07:11:39;;;;;;;41.67;13.10;;;;;;;;;;5077316;28;20475;-59
2023/01/23 07:14:07;;;;;;;31.40;9.60;;;;;;;;;;5064558;28;20485;-59
2023/01/23 07:16:35;;;;;;;38.13;12.43;;;;;;;;;;5069817;28;20492;-59
2023/01/23 07:19:04;;;;;;;39.70;11.90;;;;;;;;;;5047345;28;20483;-59
2023/01/23 07:21:30;;;;;;;47.40;9.40;;;3.30;99.90;;;;;;5053470;28;20492;-59
2023/01/23 07:23:57;;;;;;;34.83;8.10;;;3.30;99.90;;;;;;5050782;28;20510;-59
2023/01/23 07:26:24;;;;;;;45.70;15.60;;;;;;;;;;5073365;28;20492;-59
2023/01/23 07:28:51;;;;;;;32.53;11.43;;;;;;;;;;5062464;28;20480;-59
2023/01/23 07:31:19;;;;;;;35.67;10.20;;;3.30;99.90;;;;;;5056559;28;20840;-59
2023/01/23 07:33:46;;;;;;;49.17;13.63;;;3.30;99.90;;;;;;5046629;28;20583;-59
2023/01/23 07:36:13;;;;;;;27.37;8.43;;;;;;;;;;5047832;28;20843;-59
2023/01/23 07:38:41;;;;;;;48.70;12.80;;;;;;;;;;5061121;28;20497;-59
2023/01/23 07:41:07;;;;;;;32.30;9.93;;;3.40;99.90;;;;;;5066356;28;20560;-59
2023/01/23 07:43:34;;;;;;;19.63;6.70;;;5.10;99.90;;;;;;5066647;28;20878;-59
2023/01/23 07:46:01;;;;;;;40.93;9.30;;;;;;;;;;5083700;27;20532;-60
2023/01/23 07:48:29;;;;;;;46.47;10.70;;;3.30;99.90;;;;;;5063681;28;20487;-59
2023/01/23 07:50:56;;;;;;;35.90;10.43;;;;;;;;;;5051950;28;20483;-60
2023/01/23 07:53:23;;;;;;;33.57;8.90;;;;;;;;;;5049634;28;20498;-60
2023/01/23 07:55:50;;;;;;;52.73;13.80;;;3.40;99.90;;;;;;5069559;28;20822;-60
2023/01/23 07:58:17;;;;;;;39.43;12.33;;;3.40;99.90;;;;;;5055826;28;20481;-60
2023/01/23 08:00:44;;;;;;;48.10;13.00;;;3.40;99.90;;;;;;5047309;28;20835;-59
2023/01/23 08:03:11;;;;;;;34.87;9.77;;;3.50;99.90;;;;;;5078155;28;20482;-60
2023/01/23 08:05:39;;;;;;;30.73;9.70;;;6.10;99.90;;;;;;5055266;28;20966;-59
2023/01/23 08:08:07;;;;;;;33.40;9.63;;;3.50;99.90;;;;;;5031950;28;20501;-60
2023/01/23 08:10:34;;;;;;;42.67;11.10;;;3.50;99.90;;;;;;5063839;28;20563;-59
2023/01/23 08:13:02;;;;;;;36.13;9.00;;;3.60;99.90;;;;;;5078098;28;20575;-60
2023/01/23 08:15:28;;;;;;;44.10;11.73;;;3.60;99.90;;;;;;5066286;28;20473;-59
2023/01/23 08:17:56;;;;;;;30.23;9.53;;;3.70;99.90;;;;;;5056577;28;20486;-59
2023/01/23 08:20:22;;;;;;;33.93;9.93;;;3.80;99.90;;;;;;5054632;28;20480;-59
2023/01/23 08:22:50;;;;;;;45.40;12.73;;;3.80;99.80;;;;;;5052529;28;21018;-59
2023/01/23 08:25:17;;;;;;;34.57;10.70;;;3.80;99.70;;;;;;5078229;28;20487;-60
2023/01/23 08:27:44;;;;;;;47.37;12.50;;;;;;;;;;5054481;28;20484;-59
2023/01/23 08:30:12;;;;;;;41.60;11.23;;;;;;;;;;5063872;28;20477;-59
2023/01/23 08:32:38;;;;;;;54.77;14.90;;;3.70;99.40;;;;;;5083383;28;20479;-60
2023/01/23 08:35:06;;;;;;;37.30;10.63;;;3.80;99.50;;;;;;5058570;28;21006;-60
2023/01/23 08:37:33;;;;;;;33.00;10.63;;;7.10;99.90;;;;;;5024745;28;20487;-59
2023/01/23 08:40:01;;;;;;;39.67;10.87;;;3.90;99.40;;;;;;5058213;28;20471;-60
2023/01/23 08:42:28;;;;;;;43.77;10.10;;;3.90;99.10;;;;;;5053416;28;21323;-60
2023/01/23 08:44:55;;;;;;;37.47;11.73;;;3.90;98.90;;;;;;5044322;28;20607;-60
2023/01/23 08:47:22;;;;;;;38.77;13.17;;;3.90;99.20;;;;;;5039266;28;20483;-59
2023/01/23 08:49:49;;;;;;;54.70;12.90;;;3.90;99.30;;;;;;5047957;28;20906;-60
2023/01/23 08:52:16;;;;;;;40.70;11.10;;;3.90;99.30;;;;;;5073325;28;20471;-59
2023/01/23 08:54:43;;;;;;;50.97;15.53;;;;;;;;;;5054769;27;20518;-59
2023/01/23 08:57:11;;;;;;;42.77;11.23;;;4.00;99.50;;;;;;5064467;28;20493;-59
2023/01/23 08:59:38;;;;;;;43.33;13.00;;;;;;;;;;5068511;28;20490;-59
2023/01/23 09:02:04;;;;;;;27.07;9.77;;;4.10;99.20;;;;;;5063269;28;20470;-60
2023/01/23 09:04:31;;;;;;;31.00;10.00;;;;;;;;;;5050933;28;20514;-60
2023/01/23 09:06:58;;;;;;;41.50;10.97;;;4.20;99.20;;;;;;5043575;28;20514;-59
2023/01/23 09:09:25;;;;;;;33.00;10.20;;;4.20;99.00;;;;;;5059194;28;20747;-59
2023/01/23 09:11:52;;;;;;;28.93;8.90;;;4.10;99.00;;;;;;5070710;28;20539;-59
2023/01/23 09:14:20;;;;;;;42.63;10.50;;;4.20;99.00;;;;;;5062598;28;20908;-60
2023/01/23 09:16:47;;;;;;;62.77;18.33;;;;;;;;;;5046489;28;20873;-59
2023/01/23 09:19:14;;;;;;;31.13;8.33;;;4.20;99.00;;;;;;5055988;28;20479;-59
2023/01/23 09:21:41;;;;;;;19.90;9.20;;;4.30;98.80;;;;;;5038774;28;20478;-59
2023/01/23 09:24:08;;;;;;;40.87;11.07;;;4.20;98.70;;;;;;5068851;28;20516;-59
2023/01/23 09:26:35;;;;;;;50.03;13.20;;;6.30;99.80;;;;;;5059472;28;20570;-59
2023/01/23 09:29:02;;;;;;;25.03;9.40;;;;;;;;;;5073211;28;20493;-59
2023/01/23 09:31:30;;;;;;;29.27;9.47;;;4.30;98.40;;;;;;5055392;28;20483;-59
2023/01/23 09:33:57;;;;;;;27.80;9.50;;;4.40;98.60;;;;;;5058901;28;20494;-59
2023/01/23 09:36:24;;;;;;;54.53;14.00;;;;;;;;;;5070201;28;20483;-59
2023/01/23 09:38:51;;;;;;;40.30;11.60;;;4.40;98.30;;;;;;5054969;28;20504;-59
2023/01/23 09:41:19;;;;;;;28.47;8.90;;;;;;;;;;5067010;28;20494;-59
2023/01/23 09:43:51;;;;;;;66.40;15.90;;;4.50;98.50;;;;;;5045871;28;20467;-59
2023/01/23 09:46:24;;;;;;;44.37;10.80;;;4.50;98.40;;;;;;5049272;28;20485;-59
2023/01/23 09:48:58;;;;;;;49.17;12.73;;;4.50;98.30;;;;;;5076138;28;20469;-59
2023/01/23 09:51:29;;;;;;;33.53;9.13;;;4.50;98.30;;;;;;5068684;28;20496;-59
2023/01/23 09:53:58;;;;;;;24.63;6.80;;;;;;;;;;5062345;28;20465;-59
2023/01/23 09:56:35;;;;;;;47.73;13.00;;;4.40;98.20;;;;;;5052534;28;20485;-59
2023/01/23 09:59:08;;;;;;;35.50;8.33;;;;;;;;;;5070021;28;20898;-59
2023/01/23 10:01:35;;;;;;;38.20;10.13;;;;;;;;;;5055383;28;20481;-59
2023/01/23 10:04:04;;;;;;;29.57;8.77;;;4.10;98.40;;;;;;5077162;28;20505;-59
2023/01/23 10:06:33;;;;;;;33.17;9.90;;;4.50;98.50;;;;;;5051173;28;20492;-59
2023/01/23 10:09:21;;;;;;;37.23;11.07;;;4.50;98.70;;;;;;5056175;28;20859;-59
2023/01/23 10:11:56;;;;;;;30.93;9.50;;;4.50;98.50;;;;;;5067908;28;20513;-59
2023/01/23 10:14:58;;;;;;;33.60;9.47;;;4.60;98.50;;;;;;5044079;28;20493;-59
2023/01/23 10:17:34;;;;;;;41.10;11.43;;;4.60;98.40;;;;;;5045122;28;20818;-59
2023/01/23 10:20:29;;;;;;;42.37;10.30;;;4.70;98.70;;;;;;5049294;28;20487;-59
2023/01/23 10:23:00;;;;;;;34.50;10.90;;;;;;;;;;5048873;28;21071;-59
2023/01/23 10:25:31;;;;;;;41.37;10.50;;;4.70;98.40;;;;;;5056737;28;20490;-59
2023/01/23 10:28:21;;;;;;;32.30;10.90;;;4.60;98.20;;;;;;5030501;28;20540;-60
2023/01/23 10:30:55;;;;;;;42.23;11.00;;;4.50;98.00;;;;;;5065859;28;20486;-60
2023/01/23 10:33:27;;;;;;;36.73;10.70;;;;;;;;;;5057099;28;21159;-59
2023/01/23 10:35:59;;;;;;;30.93;7.73;;;;;;;;;;5045767;28;20489;-60
2023/01/23 10:38:27;;;;;;;28.33;9.27;;;;;;;;;;5052038;28;20497;-59
2023/01/23 10:41:13;;;;;;;21.37;5.73;;;;;;;;;;5064707;28;20481;-60
2023/01/23 10:43:40;;;;;;;46.90;13.30;;;4.40;98.00;;;;;;5045826;28;20556;-60
2023/01/23 10:46:12;;;;;;;32.73;9.27;;;4.40;98.10;;;;;;5083322;28;20501;-60
2023/01/23 10:48:45;;;;;;;40.07;11.23;;;4.30;98.00;;;;;;5046578;28;20562;-60
2023/01/23 10:51:27;;;;;;;36.77;8.37;;;4.30;97.90;;;;;;5061243;28;20560;-59
2023/01/23 10:54:04;;;;;;;35.20;8.13;;;4.30;97.90;;;;;;5042683;28;20482;-60
2023/01/23 10:56:33;;;;;;;33.63;9.23;;;4.30;98.00;;;;;;5049965;28;20497;-60
2023/01/23 10:59:01;;;;;;;31.53;10.70;;;4.30;98.10;;;;;;5056933;28;20572;-60
2023/01/23 11:01:34;;;;;;;48.67;11.47;;;;;;;;;;5063894;28;20507;-59
2023/01/23 11:04:18;;;;;;;24.87;6.47;;;4.30;98.20;;;;;;5057842;28;20469;-59
2023/01/23 11:07:01;;;;;;;51.73;14.80;;;4.30;98.10;;;;;;5055794;28;20524;-59
2023/01/23 11:09:29;;;;;;;31.60;9.73;;;4.30;98.30;;;;;;5070319;28;20954;-59
2023/01/23 11:12:04;;;;;;;25.87;6.83;;;4.30;98.20;;;;;;5083797;28;21657;-60
2023/01/23 11:14:30;;;;;;;26.93;7.50;;;4.30;98.30;;;;;;5053471;28;20484;-59
2023/01/23 11:17:01;;;;;;;34.93;9.63;;;;;;;;;;5068299;28;20494;-59
2023/01/23 11:19:31;;;;;;;27.20;7.83;;;4.30;98.40;;;;;;5043110;28;20518;-59
2023/01/23 11:22:01;;;;;;;32.73;9.27;;;4.30;98.30;;;;;;5075129;28;20583;-59
2023/01/23 11:24:32;;;;;;;33.90;10.80;;;4.10;98.00;;;;;;5052621;28;20743;-59
2023/01/23 11:27:00;;;;;;;24.40;8.07;;;4.20;98.20;;;;;;5053222;28;20490;-59
2023/01/23 11:29:29;;;;;;;29.03;7.80;;;4.20;98.20;;;;;;5050263;28;20471;-59
2023/01/23 11:32:00;;;;;;;38.30;10.30;;;4.20;98.10;;;;;;5049001;28;20479;-60
2023/01/23 11:34:30;;;;;;;31.80;8.80;;;;;;;;;;5050414;28;20873;-60
2023/01/23 11:37:06;;;;;;;35.63;9.30;;;4.20;98.20;;;;;;5052328;28;20498;-59
2023/01/23 11:39:41;;;;;;;27.77;9.23;;;;;;;;;;5044617;28;20483;-60
2023/01/23 11:42:10;;;;;;;32.60;7.40;;;4.30;98.20;;;;;;5043915;28;20505;-60
2023/01/23 11:44:38;;;;;;;35.90;12.70;;;;;;;;;;5074576;28;20487;-59
2023/01/23 11:47:15;;;;;;;28.67;8.00;;;;;;;;;;5056511;28;20483;-59
2023/01/23 11:50:16;;;;;;;29.97;9.77;;;4.30;98.30;;;;;;5045244;28;20589;-59
2023/01/23 11:52:55;;;;;;;42.27;11.40;;;4.20;98.30;;;;;;5032526;28;20483;-59
2023/01/23 11:55:50;;;;;;;38.47;9.20;;;4.30;98.70;;;;;;5086468;28;20498;-59
2023/01/23 11:58:28;;;;;;;17.50;5.43;;;4.20;98.40;;;;;;5045858;28;20467;-59
2023/01/23 12:01:05;;;;;;;20.03;6.30;;;4.10;98.40;;;;;;5051736;28;20790;-59
2023/01/23 12:03:51;;;;;;;35.90;9.70;;;4.10;98.70;;;;;;5060422;28;20471;-60
2023/01/23 12:06:39;;;;;;;33.10;8.03;;;4.10;98.50;;;;;;5054601;28;20475;-60
2023/01/23 12:09:12;;;;;;;33.03;7.10;;;4.00;98.50;;;;;;5055789;28;20965;-60
2023/01/23 12:11:51;;;;;;;31.43;9.30;;;4.10;98.70;;;;;;5048172;28;20505;-59
2023/01/23 12:14:21;;;;;;;23.57;5.90;;;;;;;;;;5059460;28;20488;-59
2023/01/23 12:16:56;;;;;;;62.57;15.80;;;;;;;;;;5069728;28;20502;-60
2023/01/23 12:19:35;;;;;;;45.60;10.70;;;4.10;98.80;;;;;;5059041;28;21210;-59
2023/01/23 12:22:10;;;;;;;30.13;7.83;;;4.00;98.60;;;;;;5061552;28;20471;-60
2023/01/23 12:24:47;;;;;;;23.73;7.10;;;;;;;;;;5060701;28;20467;-60
2023/01/23 12:27:19;;;;;;;38.80;9.50;;;;;;;;;;5049760;28;20487;-60
2023/01/23 12:29:56;;;;;;;43.53;11.73;;;;;;;;;;5078420;28;20989;-60
2023/01/23 12:32:41;;;;;;;31.27;6.93;;;4.20;98.50;;;;;;5060266;28;20463;-60
2023/01/23 12:35:18;;;;;;;28.33;6.80;;;;;;;;;;5048568;28;20575;-59
2023/01/23 12:37:59;;;;;;;50.40;13.17;;;4.30;98.70;;;;;;5043746;28;20890;-60
2023/01/23 12:40:36;;;;;;;28.70;9.20;;;4.40;98.60;;;;;;5053816;28;20483;-60
2023/01/23 12:43:06;;;;;;;29.03;7.97;;;;;;;;;;5055375;28;20471;-60
2023/01/23 12:45:33;;;;;;;22.27;6.70;;;4.50;98.00;;;;;;5082607;28;20522;-60
2023/01/23 12:48:06;;;;;;;34.60;10.03;;;4.60;98.10;;;;;;5061843;28;20486;-59
2023/01/23 12:50:41;;;;;;;32.23;8.67;;;4.70;98.10;;;;;;5067197;28;20546;-60
2023/01/23 12:53:11;;;;;;;44.47;10.93;;;4.60;97.90;;;;;;5062387;28;20481;-59
2023/01/23 12:55:45;;;;;;;39.87;10.20;;;4.60;97.70;;;;;;5067369;28;20485;-59
2023/01/23 12:58:16;;;;;;;30.10;7.30;;;4.50;97.60;;;;;;5046948;28;20847;-59
2023/01/23 13:00:58;;;;;;;43.20;9.00;;;4.40;97.80;;;;;;5058290;28;20488;-60
2023/01/23 13:03:50;;;;;;;27.63;7.97;;;4.40;98.20;;;;;;5050117;28;20507;-60
2023/01/23 13:06:33;;;;;;;31.03;8.23;;;7.00;99.20;;;;;;5044803;28;20486;-60
2023/01/23 13:09:06;;;;;;;28.23;8.83;;;4.50;98.00;;;;;;5058912;28;20560;-59
2023/01/23 13:11:40;;;;;;;32.93;9.60;;;;;;;;;;5052010;28;20480;-59
2023/01/23 13:14:16;;;;;;;31.97;8.87;;;;;;;;;;5058142;28;20507;-60
2023/01/23 13:16:46;;;;;;;60.60;16.53;;;4.50;98.00;;;;;;5053093;28;20479;-59
2023/01/23 13:22:16;;;;;;;38.03;7.77;;;4.40;97.90;;;;;;5076266;28;20530;-60
2023/01/23 13:27:51;;;;;;;28.63;9.87;;;;;;;;;;5051630;28;20893;-59
2023/01/23 13:30:40;;;;;;;28.00;7.97;;;2.30;97.30;;;;;;5070885;28;20479;-60
2023/01/23 13:33:52;;;;;;;30.37;7.97;;;4.40;98.20;;;;;;5059976;28;20485;-60